Terminal Aerodrome Forecast
Issued by NWS

Home | Current Version | Previous Version | Text Only | Print | Product List | Glossary On
Versions: 1 2 3 4 5 6 7 8 9 10 11 12 13 14 15 16
000
FTUS43 KGRB 222330
TAFATW
TAF
KATW 222330Z 2300/2324 VRB04KT P6SM BKN040
      TEMPO 2302/2304 -TSRA SCT025CB OVC050
     FM230400 13003KT 5SM -TSRA BKN020CB
      TEMPO 2304/2306 2SM TSRA OVC012CB
     FM230600 27004KT 4SM BR BKN050
     FM231200 26005KT P6SM SCT050 SCT100
     FM231500 31009KT P6SM BKN050=

USA.gov is the U.S. government's official web portal to all federal, state and local government web resources and services.